sensor_id;sensor_type;location;lat;lon;timestamp;P1;durP1;ratioP1;P2;durP2;ratioP2
18013;SDS011;9132;47.946;10.394;2024-01-16T00:02:09;4.23;;;2.27;;
18013;SDS011;9132;47.946;10.394;2024-01-16T00:04:37;4.17;;;2.97;;
18013;SDS011;9132;47.946;10.394;2024-01-16T00:07:05;4.13;;;2.70;;
18013;SDS011;9132;47.946;10.394;2024-01-16T00:09:32;2.90;;;2.20;;
18013;SDS011;9132;47.946;10.394;2024-01-16T00:11:59;4.23;;;2.77;;
18013;SDS011;9132;47.946;10.394;2024-01-16T00:14:27;6.73;;;2.63;;
18013;SDS011;9132;47.946;10.394;2024-01-16T00:16:53;4.70;;;2.33;;
18013;SDS011;9132;47.946;10.394;2024-01-16T00:19:20;3.80;;;2.50;;
18013;SDS011;9132;47.946;10.394;2024-01-16T00:21:48;3.90;;;2.60;;
18013;SDS011;9132;47.946;10.394;2024-01-16T00:24:14;3.90;;;2.50;;
18013;SDS011;9132;47.946;10.394;2024-01-16T00:26:41;4.70;;;2.57;;
18013;SDS011;9132;47.946;10.394;2024-01-16T00:29:09;3.43;;;2.50;;
18013;SDS011;9132;47.946;10.394;2024-01-16T00:31:37;3.90;;;2.50;;
18013;SDS011;9132;47.946;10.394;2024-01-16T00:34:03;3.50;;;2.23;;
18013;SDS011;9132;47.946;10.394;2024-01-16T00:36:30;3.37;;;2.20;;
18013;SDS011;9132;47.946;10.394;2024-01-16T00:38:58;3.77;;;2.70;;
18013;SDS011;9132;47.946;10.394;2024-01-16T00:41:24;4.30;;;2.37;;
18013;SDS011;9132;47.946;10.394;2024-01-16T00:43:52;3.43;;;2.20;;
18013;SDS011;9132;47.946;10.394;2024-01-16T00:46:18;4.37;;;2.50;;
18013;SDS011;9132;47.946;10.394;2024-01-16T00:48:46;5.67;;;2.60;;
18013;SDS011;9132;47.946;10.394;2024-01-16T00:51:13;4.27;;;2.80;;
18013;SDS011;9132;47.946;10.394;2024-01-16T00:53:39;4.50;;;2.70;;
18013;SDS011;9132;47.946;10.394;2024-01-16T00:56:08;5.10;;;3.07;;
18013;SDS011;9132;47.946;10.394;2024-01-16T00:58:35;4.27;;;2.30;;
18013;SDS011;9132;47.946;10.394;2024-01-16T01:01:01;5.87;;;2.50;;
18013;SDS011;9132;47.946;10.394;2024-01-16T01:03:28;3.73;;;2.40;;
18013;SDS011;9132;47.946;10.394;2024-01-16T01:05:55;4.10;;;2.90;;
18013;SDS011;9132;47.946;10.394;2024-01-16T01:08:21;6.40;;;2.90;;
18013;SDS011;9132;47.946;10.394;2024-01-16T01:10:48;5.07;;;2.63;;
18013;SDS011;9132;47.946;10.394;2024-01-16T01:13:16;5.40;;;2.80;;
18013;SDS011;9132;47.946;10.394;2024-01-16T01:15:42;3.53;;;2.47;;
18013;SDS011;9132;47.946;10.394;2024-01-16T01:18:09;5.33;;;3.40;;
18013;SDS011;9132;47.946;10.394;2024-01-16T01:20:35;3.93;;;2.67;;
18013;SDS011;9132;47.946;10.394;2024-01-16T01:23:02;4.77;;;2.63;;
18013;SDS011;9132;47.946;10.394;2024-01-16T01:25:29;4.43;;;2.70;;
18013;SDS011;9132;47.946;10.394;2024-01-16T01:27:55;3.87;;;2.50;;
18013;SDS011;9132;47.946;10.394;2024-01-16T01:30:23;4.67;;;2.57;;
18013;SDS011;9132;47.946;10.394;2024-01-16T01:32:49;4.47;;;2.60;;
18013;SDS011;9132;47.946;10.394;2024-01-16T01:35:16;3.83;;;2.63;;
18013;SDS011;9132;47.946;10.394;2024-01-16T01:37:44;3.83;;;2.77;;
18013;SDS011;9132;47.946;10.394;2024-01-16T01:40:11;5.30;;;2.97;;
18013;SDS011;9132;47.946;10.394;2024-01-16T01:42:50;4.83;;;2.70;;
18013;SDS011;9132;47.946;10.394;2024-01-16T01:45:17;5.37;;;3.20;;
18013;SDS011;9132;47.946;10.394;2024-01-16T01:47:45;4.30;;;2.60;;
18013;SDS011;9132;47.946;10.394;2024-01-16T01:50:12;4.20;;;2.73;;
18013;SDS011;9132;47.946;10.394;2024-01-16T01:52:40;3.87;;;2.50;;
18013;SDS011;9132;47.946;10.394;2024-01-16T01:55:07;5.33;;;2.37;;
18013;SDS011;9132;47.946;10.394;2024-01-16T01:57:37;3.67;;;2.27;;
18013;SDS011;9132;47.946;10.394;2024-01-16T02:00:05;3.70;;;2.53;;
18013;SDS011;9132;47.946;10.394;2024-01-16T02:02:32;5.57;;;2.70;;
18013;SDS011;9132;47.946;10.394;2024-01-16T02:05:01;4.00;;;2.57;;
18013;SDS011;9132;47.946;10.394;2024-01-16T02:07:28;2.73;;;2.03;;
18013;SDS011;9132;47.946;10.394;2024-01-16T02:09:57;3.37;;;2.07;;
18013;SDS011;9132;47.946;10.394;2024-01-16T02:12:25;3.73;;;2.30;;
18013;SDS011;9132;47.946;10.394;2024-01-16T02:14:52;3.70;;;2.20;;
18013;SDS011;9132;47.946;10.394;2024-01-16T02:17:18;3.23;;;2.20;;
18013;SDS011;9132;47.946;10.394;2024-01-16T02:19:45;3.93;;;2.47;;
18013;SDS011;9132;47.946;10.394;2024-01-16T02:22:15;4.47;;;1.93;;
18013;SDS011;9132;47.946;10.394;2024-01-16T02:24:47;5.47;;;2.10;;
18013;SDS011;9132;47.946;10.394;2024-01-16T02:27:14;3.10;;;2.10;;
18013;SDS011;9132;47.946;10.394;2024-01-16T02:29:40;4.50;;;2.50;;
18013;SDS011;9132;47.946;10.394;2024-01-16T02:32:09;3.77;;;2.40;;
18013;SDS011;9132;47.946;10.394;2024-01-16T02:34:36;2.37;;;1.77;;
18013;SDS011;9132;47.946;10.394;2024-01-16T02:37:03;4.53;;;2.57;;
18013;SDS011;9132;47.946;10.394;2024-01-16T02:39:31;4.37;;;2.27;;
18013;SDS011;9132;47.946;10.394;2024-01-16T02:41:59;2.63;;;2.33;;
18013;SDS011;9132;47.946;10.394;2024-01-16T02:44:26;3.90;;;2.43;;
18013;SDS011;9132;47.946;10.394;2024-01-16T02:46:53;3.90;;;2.53;;
18013;SDS011;9132;47.946;10.394;2024-01-16T02:49:19;7.47;;;2.60;;
18013;SDS011;9132;47.946;10.394;2024-01-16T02:51:46;3.30;;;2.47;;
18013;SDS011;9132;47.946;10.394;2024-01-16T02:54:12;4.27;;;2.50;;
18013;SDS011;9132;47.946;10.394;2024-01-16T02:56:39;2.80;;;2.13;;
18013;SDS011;9132;47.946;10.394;2024-01-16T02:59:07;4.03;;;2.17;;
18013;SDS011;9132;47.946;10.394;2024-01-16T03:01:33;3.83;;;2.20;;
18013;SDS011;9132;47.946;10.394;2024-01-16T03:04:00;4.00;;;2.20;;
18013;SDS011;9132;47.946;10.394;2024-01-16T03:06:26;3.53;;;2.10;;
18013;SDS011;9132;47.946;10.394;2024-01-16T03:08:53;2.93;;;1.80;;
18013;SDS011;9132;47.946;10.394;2024-01-16T03:11:20;1.90;;;1.53;;
18013;SDS011;9132;47.946;10.394;2024-01-16T03:13:46;4.47;;;2.60;;
18013;SDS011;9132;47.946;10.394;2024-01-16T03:16:16;3.57;;;2.20;;
18013;SDS011;9132;47.946;10.394;2024-01-16T03:18:42;2.80;;;1.83;;
18013;SDS011;9132;47.946;10.394;2024-01-16T03:21:10;3.50;;;2.43;;
18013;SDS011;9132;47.946;10.394;2024-01-16T03:23:37;3.10;;;1.97;;
18013;SDS011;9132;47.946;10.394;2024-01-16T03:26:03;4.27;;;2.20;;
18013;SDS011;9132;47.946;10.394;2024-01-16T03:28:32;2.97;;;1.90;;
18013;SDS011;9132;47.946;10.394;2024-01-16T03:30:59;3.00;;;1.93;;
18013;SDS011;9132;47.946;10.394;2024-01-16T03:33:29;4.50;;;2.20;;
18013;SDS011;9132;47.946;10.394;2024-01-16T03:35:55;3.30;;;2.30;;
18013;SDS011;9132;47.946;10.394;2024-01-16T03:38:22;2.77;;;2.13;;
18013;SDS011;9132;47.946;10.394;2024-01-16T03:40:48;4.30;;;2.27;;
18013;SDS011;9132;47.946;10.394;2024-01-16T03:43:15;3.43;;;2.40;;
18013;SDS011;9132;47.946;10.394;2024-01-16T03:45:41;4.07;;;2.47;;
18013;SDS011;9132;47.946;10.394;2024-01-16T03:48:08;3.73;;;2.43;;
18013;SDS011;9132;47.946;10.394;2024-01-16T03:50:36;3.40;;;2.23;;
18013;SDS011;9132;47.946;10.394;2024-01-16T03:53:03;2.87;;;2.17;;
18013;SDS011;9132;47.946;10.394;2024-01-16T03:55:30;3.13;;;2.00;;
18013;SDS011;9132;47.946;10.394;2024-01-16T03:57:56;4.20;;;2.10;;
18013;SDS011;9132;47.946;10.394;2024-01-16T04:00:23;3.40;;;2.13;;
18013;SDS011;9132;47.946;10.394;2024-01-16T04:02:50;3.20;;;2.00;;
18013;SDS011;9132;47.946;10.394;2024-01-16T04:05:16;5.17;;;2.73;;
18013;SDS011;9132;47.946;10.394;2024-01-16T04:07:44;4.00;;;2.37;;
18013;SDS011;9132;47.946;10.394;2024-01-16T04:10:10;4.27;;;2.50;;
18013;SDS011;9132;47.946;10.394;2024-01-16T04:12:37;3.53;;;2.40;;
18013;SDS011;9132;47.946;10.394;2024-01-16T04:15:04;4.33;;;2.07;;
18013;SDS011;9132;47.946;10.394;2024-01-16T04:17:31;4.83;;;2.73;;
18013;SDS011;9132;47.946;10.394;2024-01-16T04:19:58;5.30;;;2.53;;
18013;SDS011;9132;47.946;10.394;2024-01-16T04:22:24;3.63;;;2.30;;
18013;SDS011;9132;47.946;10.394;2024-01-16T04:24:52;4.43;;;2.50;;
18013;SDS011;9132;47.946;10.394;2024-01-16T04:27:19;3.80;;;2.57;;
18013;SDS011;9132;47.946;10.394;2024-01-16T04:29:46;3.53;;;2.10;;
18013;SDS011;9132;47.946;10.394;2024-01-16T04:32:13;4.03;;;2.20;;
18013;SDS011;9132;47.946;10.394;2024-01-16T04:34:39;4.30;;;2.50;;
18013;SDS011;9132;47.946;10.394;2024-01-16T04:37:06;4.63;;;2.20;;
18013;SDS011;9132;47.946;10.394;2024-01-16T04:39:33;5.40;;;2.40;;
18013;SDS011;9132;47.946;10.394;2024-01-16T04:42:01;2.53;;;2.23;;
18013;SDS011;9132;47.946;10.394;2024-01-16T04:44:27;3.47;;;2.13;;
18013;SDS011;9132;47.946;10.394;2024-01-16T04:46:54;3.87;;;2.53;;
18013;SDS011;9132;47.946;10.394;2024-01-16T04:49:20;3.70;;;2.43;;
18013;SDS011;9132;47.946;10.394;2024-01-16T04:51:47;3.37;;;2.27;;
18013;SDS011;9132;47.946;10.394;2024-01-16T04:54:13;4.83;;;2.63;;
18013;SDS011;9132;47.946;10.394;2024-01-16T04:56:40;5.40;;;2.60;;
18013;SDS011;9132;47.946;10.394;2024-01-16T04:59:08;4.03;;;2.40;;
18013;SDS011;9132;47.946;10.394;2024-01-16T05:01:34;3.90;;;2.80;;
18013;SDS011;9132;47.946;10.394;2024-01-16T05:04:01;7.03;;;2.77;;
18013;SDS011;9132;47.946;10.394;2024-01-16T05:06:28;8.57;;;2.93;;
18013;SDS011;9132;47.946;10.394;2024-01-16T05:08:55;5.43;;;2.77;;
18013;SDS011;9132;47.946;10.394;2024-01-16T05:11:21;6.07;;;3.00;;
18013;SDS011;9132;47.946;10.394;2024-01-16T05:13:48;3.57;;;2.50;;
18013;SDS011;9132;47.946;10.394;2024-01-16T05:16:16;5.07;;;2.77;;
18013;SDS011;9132;47.946;10.394;2024-01-16T05:18:42;3.53;;;2.50;;
18013;SDS011;9132;47.946;10.394;2024-01-16T05:21:10;4.40;;;3.07;;
18013;SDS011;9132;47.946;10.394;2024-01-16T05:23:36;5.93;;;3.50;;
18013;SDS011;9132;47.946;10.394;2024-01-16T05:26:03;5.67;;;3.13;;
18013;SDS011;9132;47.946;10.394;2024-01-16T05:28:30;5.07;;;2.87;;
18013;SDS011;9132;47.946;10.394;2024-01-16T05:30:57;4.97;;;2.77;;
18013;SDS011;9132;47.946;10.394;2024-01-16T05:33:25;5.43;;;3.30;;
18013;SDS011;9132;47.946;10.394;2024-01-16T05:35:52;3.70;;;2.43;;
18013;SDS011;9132;47.946;10.394;2024-01-16T05:38:19;5.27;;;3.13;;
18013;SDS011;9132;47.946;10.394;2024-01-16T05:40:45;5.10;;;2.63;;
18013;SDS011;9132;47.946;10.394;2024-01-16T05:43:12;5.07;;;2.60;;
18013;SDS011;9132;47.946;10.394;2024-01-16T05:45:39;5.63;;;3.13;;
18013;SDS011;9132;47.946;10.394;2024-01-16T05:48:06;5.87;;;3.20;;
18013;SDS011;9132;47.946;10.394;2024-01-16T05:50:35;5.43;;;2.83;;
18013;SDS011;9132;47.946;10.394;2024-01-16T05:53:03;5.70;;;3.17;;
18013;SDS011;9132;47.946;10.394;2024-01-16T05:55:29;5.97;;;3.20;;
18013;SDS011;9132;47.946;10.394;2024-01-16T05:57:57;5.30;;;4.17;;
18013;SDS011;9132;47.946;10.394;2024-01-16T06:00:25;7.33;;;3.83;;
18013;SDS011;9132;47.946;10.394;2024-01-16T06:02:51;6.30;;;3.63;;
18013;SDS011;9132;47.946;10.394;2024-01-16T06:05:18;6.07;;;3.00;;
18013;SDS011;9132;47.946;10.394;2024-01-16T06:07:46;5.73;;;3.00;;
18013;SDS011;9132;47.946;10.394;2024-01-16T06:10:13;5.20;;;2.67;;
18013;SDS011;9132;47.946;10.394;2024-01-16T06:12:40;3.10;;;2.33;;
18013;SDS011;9132;47.946;10.394;2024-01-16T06:15:07;4.93;;;2.60;;
18013;SDS011;9132;47.946;10.394;2024-01-16T06:17:34;5.23;;;2.87;;
18013;SDS011;9132;47.946;10.394;2024-01-16T06:20:01;3.33;;;2.30;;
18013;SDS011;9132;47.946;10.394;2024-01-16T06:22:27;3.13;;;2.80;;
18013;SDS011;9132;47.946;10.394;2024-01-16T06:24:55;5.20;;;3.00;;
18013;SDS011;9132;47.946;10.394;2024-01-16T06:27:22;4.40;;;3.07;;
18013;SDS011;9132;47.946;10.394;2024-01-16T06:29:48;4.43;;;2.73;;
18013;SDS011;9132;47.946;10.394;2024-01-16T06:32:16;3.77;;;2.20;;
18013;SDS011;9132;47.946;10.394;2024-01-16T06:34:42;3.73;;;2.50;;
18013;SDS011;9132;47.946;10.394;2024-01-16T06:37:09;4.07;;;2.67;;
18013;SDS011;9132;47.946;10.394;2024-01-16T06:39:36;6.07;;;4.40;;
18013;SDS011;9132;47.946;10.394;2024-01-16T06:42:04;7.43;;;3.50;;
18013;SDS011;9132;47.946;10.394;2024-01-16T06:44:31;7.03;;;3.43;;
18013;SDS011;9132;47.946;10.394;2024-01-16T06:46:58;8.63;;;3.80;;
18013;SDS011;9132;47.946;10.394;2024-01-16T06:49:25;5.57;;;4.53;;
18013;SDS011;9132;47.946;10.394;2024-01-16T06:51:52;6.37;;;4.77;;
18013;SDS011;9132;47.946;10.394;2024-01-16T06:54:18;5.10;;;3.53;;
18013;SDS011;9132;47.946;10.394;2024-01-16T06:56:46;6.67;;;5.00;;
18013;SDS011;9132;47.946;10.394;2024-01-16T06:59:15;5.73;;;3.83;;
18013;SDS011;9132;47.946;10.394;2024-01-16T07:01:44;6.73;;;4.00;;
18013;SDS011;9132;47.946;10.394;2024-01-16T07:04:11;7.97;;;6.00;;
18013;SDS011;9132;47.946;10.394;2024-01-16T07:06:39;8.40;;;5.30;;
18013;SDS011;9132;47.946;10.394;2024-01-16T07:09:05;9.80;;;6.33;;
18013;SDS011;9132;47.946;10.394;2024-01-16T07:11:35;6.17;;;4.93;;
18013;SDS011;9132;47.946;10.394;2024-01-16T07:14:02;6.20;;;3.90;;
18013;SDS011;9132;47.946;10.394;2024-01-16T07:16:30;6.57;;;4.27;;
18013;SDS011;9132;47.946;10.394;2024-01-16T07:18:57;6.57;;;4.60;;
18013;SDS011;9132;47.946;10.394;2024-01-16T07:21:24;10.10;;;5.67;;
18013;SDS011;9132;47.946;10.394;2024-01-16T07:23:50;7.40;;;4.60;;
18013;SDS011;9132;47.946;10.394;2024-01-16T07:26:17;8.93;;;4.73;;
18013;SDS011;9132;47.946;10.394;2024-01-16T07:28:43;9.27;;;4.93;;
18013;SDS011;9132;47.946;10.394;2024-01-16T07:31:10;6.90;;;4.83;;
18013;SDS011;9132;47.946;10.394;2024-01-16T07:33:38;5.60;;;3.50;;
18013;SDS011;9132;47.946;10.394;2024-01-16T07:36:05;5.23;;;3.80;;
18013;SDS011;9132;47.946;10.394;2024-01-16T07:38:32;6.97;;;4.13;;
18013;SDS011;9132;47.946;10.394;2024-01-16T07:40:59;6.50;;;4.17;;
18013;SDS011;9132;47.946;10.394;2024-01-16T07:43:26;8.00;;;4.70;;
18013;SDS011;9132;47.946;10.394;2024-01-16T07:45:52;5.70;;;3.67;;
18013;SDS011;9132;47.946;10.394;2024-01-16T07:48:19;7.03;;;4.17;;
18013;SDS011;9132;47.946;10.394;2024-01-16T07:50:46;6.53;;;3.73;;
18013;SDS011;9132;47.946;10.394;2024-01-16T07:53:13;9.03;;;4.53;;
18013;SDS011;9132;47.946;10.394;2024-01-16T07:55:40;4.27;;;3.37;;
18013;SDS011;9132;47.946;10.394;2024-01-16T07:58:06;7.10;;;4.20;;
18013;SDS011;9132;47.946;10.394;2024-01-16T08:00:33;8.67;;;4.00;;
18013;SDS011;9132;47.946;10.394;2024-01-16T08:02:59;8.17;;;4.97;;
18013;SDS011;9132;47.946;10.394;2024-01-16T08:05:26;10.17;;;4.87;;
18013;SDS011;9132;47.946;10.394;2024-01-16T08:07:56;7.07;;;4.13;;
18013;SDS011;9132;47.946;10.394;2024-01-16T08:10:23;5.37;;;4.03;;
18013;SDS011;9132;47.946;10.394;2024-01-16T08:12:49;7.03;;;4.47;;
18013;SDS011;9132;47.946;10.394;2024-01-16T08:15:16;7.03;;;4.23;;
18013;SDS011;9132;47.946;10.394;2024-01-16T08:17:42;7.13;;;4.90;;
18013;SDS011;9132;47.946;10.394;2024-01-16T08:20:09;8.10;;;4.90;;
18013;SDS011;9132;47.946;10.394;2024-01-16T08:22:36;6.63;;;4.73;;
18013;SDS011;9132;47.946;10.394;2024-01-16T08:25:05;8.63;;;5.03;;
18013;SDS011;9132;47.946;10.394;2024-01-16T08:27:32;9.03;;;5.07;;
18013;SDS011;9132;47.946;10.394;2024-01-16T08:29:58;9.17;;;5.37;;
18013;SDS011;9132;47.946;10.394;2024-01-16T08:32:26;6.93;;;4.93;;
18013;SDS011;9132;47.946;10.394;2024-01-16T08:34:53;6.87;;;4.50;;
18013;SDS011;9132;47.946;10.394;2024-01-16T08:37:19;8.23;;;4.93;;
18013;SDS011;9132;47.946;10.394;2024-01-16T08:39:46;9.13;;;5.73;;
18013;SDS011;9132;47.946;10.394;2024-01-16T08:42:13;11.23;;;6.73;;
18013;SDS011;9132;47.946;10.394;2024-01-16T08:44:40;9.73;;;6.00;;
18013;SDS011;9132;47.946;10.394;2024-01-16T08:47:07;8.57;;;5.93;;
18013;SDS011;9132;47.946;10.394;2024-01-16T08:49:34;10.13;;;6.00;;
18013;SDS011;9132;47.946;10.394;2024-01-16T08:52:03;8.30;;;5.13;;
18013;SDS011;9132;47.946;10.394;2024-01-16T08:54:30;9.07;;;5.27;;
18013;SDS011;9132;47.946;10.394;2024-01-16T08:56:56;7.77;;;5.17;;
18013;SDS011;9132;47.946;10.394;2024-01-16T08:59:25;7.27;;;5.00;;
18013;SDS011;9132;47.946;10.394;2024-01-16T09:01:53;9.03;;;5.40;;
18013;SDS011;9132;47.946;10.394;2024-01-16T09:04:19;10.87;;;6.10;;
18013;SDS011;9132;47.946;10.394;2024-01-16T09:06:46;7.97;;;4.60;;
18013;SDS011;9132;47.946;10.394;2024-01-16T09:09:12;8.13;;;4.80;;
18013;SDS011;9132;47.946;10.394;2024-01-16T09:11:41;9.00;;;5.00;;
18013;SDS011;9132;47.946;10.394;2024-01-16T09:14:07;9.80;;;5.63;;
18013;SDS011;9132;47.946;10.394;2024-01-16T09:16:35;8.53;;;5.40;;
18013;SDS011;9132;47.946;10.394;2024-01-16T09:19:01;8.77;;;5.87;;
18013;SDS011;9132;47.946;10.394;2024-01-16T09:21:28;12.43;;;6.00;;
18013;SDS011;9132;47.946;10.394;2024-01-16T09:23:54;9.27;;;5.77;;
18013;SDS011;9132;47.946;10.394;2024-01-16T09:26:21;11.27;;;6.83;;
18013;SDS011;9132;47.946;10.394;2024-01-16T09:28:48;10.80;;;6.30;;
18013;SDS011;9132;47.946;10.394;2024-01-16T09:31:14;9.67;;;6.60;;
18013;SDS011;9132;47.946;10.394;2024-01-16T09:33:42;8.80;;;5.63;;
18013;SDS011;9132;47.946;10.394;2024-01-16T09:36:09;12.17;;;7.60;;
18013;SDS011;9132;47.946;10.394;2024-01-16T09:38:36;10.93;;;6.00;;
18013;SDS011;9132;47.946;10.394;2024-01-16T09:41:02;9.37;;;6.30;;
18013;SDS011;9132;47.946;10.394;2024-01-16T09:43:29;8.77;;;5.53;;
18013;SDS011;9132;47.946;10.394;2024-01-16T09:45:59;11.63;;;6.60;;
18013;SDS011;9132;47.946;10.394;2024-01-16T09:48:27;10.60;;;5.67;;
18013;SDS011;9132;47.946;10.394;2024-01-16T09:50:56;10.53;;;6.60;;
18013;SDS011;9132;47.946;10.394;2024-01-16T09:53:22;8.33;;;5.80;;
18013;SDS011;9132;47.946;10.394;2024-01-16T09:55:50;8.47;;;5.77;;
18013;SDS011;9132;47.946;10.394;2024-01-16T09:58:20;10.47;;;5.97;;
18013;SDS011;9132;47.946;10.394;2024-01-16T10:00:47;7.80;;;5.83;;
18013;SDS011;9132;47.946;10.394;2024-01-16T10:03:15;7.83;;;5.83;;
18013;SDS011;9132;47.946;10.394;2024-01-16T10:05:42;11.50;;;6.47;;
18013;SDS011;9132;47.946;10.394;2024-01-16T10:08:12;8.77;;;5.50;;
18013;SDS011;9132;47.946;10.394;2024-01-16T10:10:39;8.33;;;5.33;;
18013;SDS011;9132;47.946;10.394;2024-01-16T10:13:06;7.60;;;5.83;;
18013;SDS011;9132;47.946;10.394;2024-01-16T10:15:33;7.80;;;5.23;;
18013;SDS011;9132;47.946;10.394;2024-01-16T10:18:00;8.60;;;5.60;;
18013;SDS011;9132;47.946;10.394;2024-01-16T10:20:33;8.77;;;4.83;;
18013;SDS011;9132;47.946;10.394;2024-01-16T10:23:00;8.57;;;5.27;;
18013;SDS011;9132;47.946;10.394;2024-01-16T10:25:29;10.70;;;6.00;;
18013;SDS011;9132;47.946;10.394;2024-01-16T10:28:05;7.93;;;5.33;;
18013;SDS011;9132;47.946;10.394;2024-01-16T10:30:35;8.00;;;5.30;;
18013;SDS011;9132;47.946;10.394;2024-01-16T10:33:12;7.27;;;5.00;;
18013;SDS011;9132;47.946;10.394;2024-01-16T10:35:39;8.60;;;5.53;;
18013;SDS011;9132;47.946;10.394;2024-01-16T10:38:06;8.00;;;5.30;;
18013;SDS011;9132;47.946;10.394;2024-01-16T10:40:34;7.40;;;5.47;;
18013;SDS011;9132;47.946;10.394;2024-01-16T10:43:01;7.23;;;5.27;;
18013;SDS011;9132;47.946;10.394;2024-01-16T10:45:29;85.30;;;27.90;;
18013;SDS011;9132;47.946;10.394;2024-01-16T10:48:02;24.57;;;14.37;;
18013;SDS011;9132;47.946;10.394;2024-01-16T10:50:30;9.53;;;6.53;;
18013;SDS011;9132;47.946;10.394;2024-01-16T10:52:59;7.60;;;4.83;;
18013;SDS011;9132;47.946;10.394;2024-01-16T10:55:27;8.80;;;5.07;;
18013;SDS011;9132;47.946;10.394;2024-01-16T10:57:56;9.07;;;5.50;;
18013;SDS011;9132;47.946;10.394;2024-01-16T11:00:26;10.30;;;5.23;;
18013;SDS011;9132;47.946;10.394;2024-01-16T11:02:54;8.47;;;5.43;;
18013;SDS011;9132;47.946;10.394;2024-01-16T11:05:25;7.83;;;5.37;;
18013;SDS011;9132;47.946;10.394;2024-01-16T11:07:55;8.53;;;5.60;;
18013;SDS011;9132;47.946;10.394;2024-01-16T11:10:22;9.70;;;5.90;;
18013;SDS011;9132;47.946;10.394;2024-01-16T11:12:50;9.57;;;6.00;;
18013;SDS011;9132;47.946;10.394;2024-01-16T11:15:20;9.13;;;5.83;;
18013;SDS011;9132;47.946;10.394;2024-01-16T11:17:48;11.13;;;7.30;;
18013;SDS011;9132;47.946;10.394;2024-01-16T11:20:15;9.07;;;6.73;;
18013;SDS011;9132;47.946;10.394;2024-01-16T11:22:44;8.90;;;6.13;;
18013;SDS011;9132;47.946;10.394;2024-01-16T11:25:12;10.60;;;6.10;;
18013;SDS011;9132;47.946;10.394;2024-01-16T11:27:40;9.07;;;6.03;;
18013;SDS011;9132;47.946;10.394;2024-01-16T11:30:09;8.37;;;5.63;;
18013;SDS011;9132;47.946;10.394;2024-01-16T11:32:39;9.27;;;6.97;;
18013;SDS011;9132;47.946;10.394;2024-01-16T11:35:06;9.40;;;5.27;;
18013;SDS011;9132;47.946;10.394;2024-01-16T11:37:33;7.83;;;5.10;;
18013;SDS011;9132;47.946;10.394;2024-01-16T11:42:58;8.93;;;4.97;;
18013;SDS011;9132;47.946;10.394;2024-01-16T11:48:18;6.63;;;5.13;;
18013;SDS011;9132;47.946;10.394;2024-01-16T11:50:46;8.23;;;5.13;;
18013;SDS011;9132;47.946;10.394;2024-01-16T11:53:31;8.40;;;5.40;;
18013;SDS011;9132;47.946;10.394;2024-01-16T11:56:05;8.73;;;4.67;;
18013;SDS011;9132;47.946;10.394;2024-01-16T11:58:43;6.63;;;4.83;;
18013;SDS011;9132;47.946;10.394;2024-01-16T12:01:15;7.67;;;5.10;;
18013;SDS011;9132;47.946;10.394;2024-01-16T12:03:46;8.80;;;5.50;;
18013;SDS011;9132;47.946;10.394;2024-01-16T12:06:27;8.07;;;5.07;;
18013;SDS011;9132;47.946;10.394;2024-01-16T12:08:53;7.27;;;4.87;;
18013;SDS011;9132;47.946;10.394;2024-01-16T12:11:20;6.80;;;5.20;;
18013;SDS011;9132;47.946;10.394;2024-01-16T12:14:00;8.47;;;6.10;;
18013;SDS011;9132;47.946;10.394;2024-01-16T12:16:27;9.07;;;6.53;;
18013;SDS011;9132;47.946;10.394;2024-01-16T12:19:04;7.93;;;5.67;;
18013;SDS011;9132;47.946;10.394;2024-01-16T12:21:32;12.10;;;6.93;;
18013;SDS011;9132;47.946;10.394;2024-01-16T12:24:00;8.83;;;6.30;;
18013;SDS011;9132;47.946;10.394;2024-01-16T12:26:28;9.50;;;5.97;;
18013;SDS011;9132;47.946;10.394;2024-01-16T12:28:55;7.90;;;5.47;;
18013;SDS011;9132;47.946;10.394;2024-01-16T12:31:22;8.60;;;5.67;;
18013;SDS011;9132;47.946;10.394;2024-01-16T12:33:49;8.00;;;5.77;;
18013;SDS011;9132;47.946;10.394;2024-01-16T12:36:17;7.97;;;5.63;;
18013;SDS011;9132;47.946;10.394;2024-01-16T12:38:44;8.03;;;5.70;;
18013;SDS011;9132;47.946;10.394;2024-01-16T12:41:19;7.53;;;5.23;;
18013;SDS011;9132;47.946;10.394;2024-01-16T12:43:48;8.87;;;5.93;;
18013;SDS011;9132;47.946;10.394;2024-01-16T12:46:15;9.73;;;6.77;;
18013;SDS011;9132;47.946;10.394;2024-01-16T12:48:44;7.83;;;6.47;;
18013;SDS011;9132;47.946;10.394;2024-01-16T12:51:12;9.20;;;5.73;;
18013;SDS011;9132;47.946;10.394;2024-01-16T12:53:47;10.07;;;6.53;;
18013;SDS011;9132;47.946;10.394;2024-01-16T12:56:17;9.57;;;6.17;;
18013;SDS011;9132;47.946;10.394;2024-01-16T12:58:45;9.77;;;8.02;;
18013;SDS011;9132;47.946;10.394;2024-01-16T13:01:21;10.20;;;6.60;;
18013;SDS011;9132;47.946;10.394;2024-01-16T13:03:49;10.60;;;6.00;;
18013;SDS011;9132;47.946;10.394;2024-01-16T13:06:17;8.47;;;6.10;;
18013;SDS011;9132;47.946;10.394;2024-01-16T13:08:45;8.13;;;6.23;;
18013;SDS011;9132;47.946;10.394;2024-01-16T13:11:13;8.73;;;5.97;;
18013;SDS011;9132;47.946;10.394;2024-01-16T13:13:44;9.93;;;6.87;;
18013;SDS011;9132;47.946;10.394;2024-01-16T13:16:11;11.37;;;7.17;;
18013;SDS011;9132;47.946;10.394;2024-01-16T13:18:37;9.30;;;6.43;;
18013;SDS011;9132;47.946;10.394;2024-01-16T13:21:04;9.63;;;6.30;;
18013;SDS011;9132;47.946;10.394;2024-01-16T13:23:31;9.87;;;6.20;;
18013;SDS011;9132;47.946;10.394;2024-01-16T13:25:57;9.87;;;7.67;;
18013;SDS011;9132;47.946;10.394;2024-01-16T13:28:25;9.63;;;7.43;;
18013;SDS011;9132;47.946;10.394;2024-01-16T13:30:52;9.43;;;6.37;;
18013;SDS011;9132;47.946;10.394;2024-01-16T13:33:19;8.63;;;5.87;;
18013;SDS011;9132;47.946;10.394;2024-01-16T13:35:49;9.43;;;6.73;;
18013;SDS011;9132;47.946;10.394;2024-01-16T13:38:17;8.47;;;6.07;;
18013;SDS011;9132;47.946;10.394;2024-01-16T13:40:45;9.43;;;5.97;;
18013;SDS011;9132;47.946;10.394;2024-01-16T13:43:12;10.13;;;6.37;;
18013;SDS011;9132;47.946;10.394;2024-01-16T13:45:40;10.23;;;6.90;;
18013;SDS011;9132;47.946;10.394;2024-01-16T13:48:07;10.03;;;6.63;;
18013;SDS011;9132;47.946;10.394;2024-01-16T13:50:34;10.87;;;6.60;;
18013;SDS011;9132;47.946;10.394;2024-01-16T13:53:01;14.20;;;9.50;;
18013;SDS011;9132;47.946;10.394;2024-01-16T13:55:28;15.67;;;9.37;;
18013;SDS011;9132;47.946;10.394;2024-01-16T13:57:57;13.27;;;8.07;;
18013;SDS011;9132;47.946;10.394;2024-01-16T14:00:23;8.33;;;5.80;;
18013;SDS011;9132;47.946;10.394;2024-01-16T14:02:51;9.77;;;5.97;;
18013;SDS011;9132;47.946;10.394;2024-01-16T14:05:19;7.63;;;5.47;;
18013;SDS011;9132;47.946;10.394;2024-01-16T14:07:46;9.27;;;6.37;;
18013;SDS011;9132;47.946;10.394;2024-01-16T14:10:16;9.03;;;6.13;;
18013;SDS011;9132;47.946;10.394;2024-01-16T14:12:43;9.80;;;6.23;;
18013;SDS011;9132;47.946;10.394;2024-01-16T14:15:11;9.30;;;6.53;;
18013;SDS011;9132;47.946;10.394;2024-01-16T14:17:44;9.60;;;6.27;;
18013;SDS011;9132;47.946;10.394;2024-01-16T14:20:13;8.17;;;6.20;;
18013;SDS011;9132;47.946;10.394;2024-01-16T14:22:40;9.17;;;5.77;;
18013;SDS011;9132;47.946;10.394;2024-01-16T14:25:08;9.77;;;5.43;;
18013;SDS011;9132;47.946;10.394;2024-01-16T14:27:38;7.80;;;5.27;;
18013;SDS011;9132;47.946;10.394;2024-01-16T14:30:06;7.50;;;4.83;;
18013;SDS011;9132;47.946;10.394;2024-01-16T14:32:35;6.33;;;4.67;;
18013;SDS011;9132;47.946;10.394;2024-01-16T14:35:03;8.80;;;4.93;;
18013;SDS011;9132;47.946;10.394;2024-01-16T14:37:31;9.50;;;5.13;;
18013;SDS011;9132;47.946;10.394;2024-01-16T14:39:58;9.80;;;6.40;;
18013;SDS011;9132;47.946;10.394;2024-01-16T14:42:26;9.43;;;5.77;;
18013;SDS011;9132;47.946;10.394;2024-01-16T14:44:53;14.20;;;7.90;;
18013;SDS011;9132;47.946;10.394;2024-01-16T14:47:20;32.47;;;13.90;;
18013;SDS011;9132;47.946;10.394;2024-01-16T14:49:46;22.40;;;11.00;;
18013;SDS011;9132;47.946;10.394;2024-01-16T14:52:13;12.73;;;7.87;;
18013;SDS011;9132;47.946;10.394;2024-01-16T14:54:41;16.93;;;9.07;;